sensor_id;sensor_type;location;lat;lon;timestamp;P1;durP1;ratioP1;P2;durP2;ratioP2
11422;SDS011;5768;51.476;7.210;2023-03-08T00:01:21;11.03;;;9.37;;
11422;SDS011;5768;51.476;7.210;2023-03-08T00:06:25;10.43;;;9.23;;
11422;SDS011;5768;51.476;7.210;2023-03-08T00:11:29;10.97;;;9.23;;
11422;SDS011;5768;51.476;7.210;2023-03-08T00:16:31;11.70;;;10.23;;
11422;SDS011;5768;51.476;7.210;2023-03-08T00:21:33;14.80;;;10.97;;
11422;SDS011;5768;51.476;7.210;2023-03-08T00:26:37;13.80;;;11.67;;
11422;SDS011;5768;51.476;7.210;2023-03-08T00:31:39;12.33;;;11.03;;
11422;SDS011;5768;51.476;7.210;2023-03-08T00:36:41;12.97;;;9.60;;
11422;SDS011;5768;51.476;7.210;2023-03-08T00:41:45;14.00;;;12.60;;
11422;SDS011;5768;51.476;7.210;2023-03-08T00:46:47;15.37;;;11.93;;
11422;SDS011;5768;51.476;7.210;2023-03-08T00:51:49;12.30;;;10.30;;
11422;SDS011;5768;51.476;7.210;2023-03-08T00:56:52;10.70;;;9.60;;
11422;SDS011;5768;51.476;7.210;2023-03-08T01:01:54;13.80;;;11.07;;
11422;SDS011;5768;51.476;7.210;2023-03-08T01:06:57;12.77;;;10.60;;
11422;SDS011;5768;51.476;7.210;2023-03-08T01:12:01;11.87;;;10.63;;
11422;SDS011;5768;51.476;7.210;2023-03-08T01:17:03;14.33;;;11.23;;
11422;SDS011;5768;51.476;7.210;2023-03-08T01:22:05;16.80;;;12.30;;
11422;SDS011;5768;51.476;7.210;2023-03-08T01:27:09;16.13;;;12.30;;
11422;SDS011;5768;51.476;7.210;2023-03-08T01:32:11;14.67;;;12.43;;
11422;SDS011;5768;51.476;7.210;2023-03-08T01:37:13;17.03;;;12.90;;
11422;SDS011;5768;51.476;7.210;2023-03-08T01:42:17;14.93;;;12.27;;
11422;SDS011;5768;51.476;7.210;2023-03-08T01:47:19;16.40;;;13.27;;
11422;SDS011;5768;51.476;7.210;2023-03-08T01:52:24;16.00;;;13.03;;
11422;SDS011;5768;51.476;7.210;2023-03-08T01:57:34;15.83;;;13.80;;
11422;SDS011;5768;51.476;7.210;2023-03-08T02:02:39;16.90;;;13.30;;
11422;SDS011;5768;51.476;7.210;2023-03-08T02:07:48;14.10;;;12.60;;
11422;SDS011;5768;51.476;7.210;2023-03-08T02:12:51;14.97;;;12.43;;
11422;SDS011;5768;51.476;7.210;2023-03-08T02:17:54;13.47;;;12.07;;
11422;SDS011;5768;51.476;7.210;2023-03-08T02:23:07;16.83;;;12.73;;
11422;SDS011;5768;51.476;7.210;2023-03-08T02:28:11;13.20;;;11.80;;
11422;SDS011;5768;51.476;7.210;2023-03-08T02:33:13;14.70;;;12.67;;
11422;SDS011;5768;51.476;7.210;2023-03-08T02:38:18;13.93;;;12.53;;
11422;SDS011;5768;51.476;7.210;2023-03-08T02:43:21;13.87;;;11.63;;
11422;SDS011;5768;51.476;7.210;2023-03-08T02:48:29;13.67;;;11.67;;
11422;SDS011;5768;51.476;7.210;2023-03-08T02:53:34;13.47;;;11.70;;
11422;SDS011;5768;51.476;7.210;2023-03-08T02:58:36;14.23;;;12.83;;
11422;SDS011;5768;51.476;7.210;2023-03-08T03:03:39;15.73;;;13.57;;
11422;SDS011;5768;51.476;7.210;2023-03-08T03:08:43;14.33;;;12.93;;
11422;SDS011;5768;51.476;7.210;2023-03-08T03:13:46;15.47;;;13.30;;
11422;SDS011;5768;51.476;7.210;2023-03-08T03:18:55;16.63;;;13.80;;
11422;SDS011;5768;51.476;7.210;2023-03-08T03:23:58;15.63;;;12.93;;
11422;SDS011;5768;51.476;7.210;2023-03-08T03:29:00;14.17;;;12.63;;
11422;SDS011;5768;51.476;7.210;2023-03-08T03:34:03;14.17;;;12.63;;
11422;SDS011;5768;51.476;7.210;2023-03-08T03:39:06;14.60;;;12.97;;
11422;SDS011;5768;51.476;7.210;2023-03-08T03:44:08;15.67;;;12.90;;
11422;SDS011;5768;51.476;7.210;2023-03-08T03:49:10;13.77;;;12.37;;
11422;SDS011;5768;51.476;7.210;2023-03-08T03:54:14;13.80;;;10.97;;
11422;SDS011;5768;51.476;7.210;2023-03-08T03:59:16;14.37;;;12.27;;
11422;SDS011;5768;51.476;7.210;2023-03-08T04:04:18;13.17;;;11.77;;
11422;SDS011;5768;51.476;7.210;2023-03-08T04:09:21;13.30;;;11.07;;
11422;SDS011;5768;51.476;7.210;2023-03-08T04:14:24;11.97;;;10.67;;
11422;SDS011;5768;51.476;7.210;2023-03-08T04:19:26;13.73;;;11.93;;
11422;SDS011;5768;51.476;7.210;2023-03-08T04:24:29;13.73;;;11.93;;
11422;SDS011;5768;51.476;7.210;2023-03-08T04:29:31;14.10;;;11.47;;
11422;SDS011;5768;51.476;7.210;2023-03-08T04:34:34;12.50;;;10.60;;
11422;SDS011;5768;51.476;7.210;2023-03-08T04:39:38;14.43;;;11.50;;
11422;SDS011;5768;51.476;7.210;2023-03-08T04:44:40;12.77;;;11.43;;
11422;SDS011;5768;51.476;7.210;2023-03-08T04:49:43;11.93;;;10.60;;
11422;SDS011;5768;51.476;7.210;2023-03-08T04:54:46;13.83;;;12.33;;
11422;SDS011;5768;51.476;7.210;2023-03-08T04:59:48;12.13;;;10.83;;
11422;SDS011;5768;51.476;7.210;2023-03-08T05:04:50;12.53;;;11.23;;
11422;SDS011;5768;51.476;7.210;2023-03-08T05:09:54;13.43;;;11.37;;
11422;SDS011;5768;51.476;7.210;2023-03-08T05:14:56;12.93;;;11.73;;
11422;SDS011;5768;51.476;7.210;2023-03-08T05:19:58;13.13;;;11.70;;
11422;SDS011;5768;51.476;7.210;2023-03-08T05:25:01;13.90;;;11.13;;
11422;SDS011;5768;51.476;7.210;2023-03-08T05:30:04;13.37;;;11.97;;
11422;SDS011;5768;51.476;7.210;2023-03-08T05:35:07;14.17;;;10.80;;
11422;SDS011;5768;51.476;7.210;2023-03-08T05:40:11;12.57;;;10.10;;
11422;SDS011;5768;51.476;7.210;2023-03-08T05:45:14;11.23;;;10.13;;
11422;SDS011;5768;51.476;7.210;2023-03-08T05:50:16;14.27;;;11.43;;
11422;SDS011;5768;51.476;7.210;2023-03-08T05:55:20;12.27;;;10.67;;
11422;SDS011;5768;51.476;7.210;2023-03-08T06:00:22;9.97;;;8.80;;
11422;SDS011;5768;51.476;7.210;2023-03-08T06:05:25;8.43;;;7.63;;
11422;SDS011;5768;51.476;7.210;2023-03-08T06:10:29;8.87;;;7.93;;
11422;SDS011;5768;51.476;7.210;2023-03-08T06:15:31;9.67;;;7.47;;
11422;SDS011;5768;51.476;7.210;2023-03-08T06:20:33;6.63;;;5.80;;
11422;SDS011;5768;51.476;7.210;2023-03-08T06:25:36;7.37;;;6.63;;
11422;SDS011;5768;51.476;7.210;2023-03-08T06:30:39;7.60;;;5.87;;
11422;SDS011;5768;51.476;7.210;2023-03-08T06:35:41;6.77;;;5.43;;
11422;SDS011;5768;51.476;7.210;2023-03-08T06:40:44;6.77;;;5.70;;
11422;SDS011;5768;51.476;7.210;2023-03-08T06:45:46;5.07;;;4.17;;
11422;SDS011;5768;51.476;7.210;2023-03-08T06:50:48;4.53;;;3.50;;
11422;SDS011;5768;51.476;7.210;2023-03-08T06:55:52;4.73;;;3.80;;
11422;SDS011;5768;51.476;7.210;2023-03-08T07:00:57;4.00;;;3.60;;
11422;SDS011;5768;51.476;7.210;2023-03-08T07:06:00;49.03;;;41.20;;
11422;SDS011;5768;51.476;7.210;2023-03-08T07:11:05;5.77;;;4.77;;
11422;SDS011;5768;51.476;7.210;2023-03-08T07:16:09;4.37;;;3.63;;
11422;SDS011;5768;51.476;7.210;2023-03-08T07:21:13;3.33;;;2.90;;
11422;SDS011;5768;51.476;7.210;2023-03-08T07:26:17;3.57;;;2.67;;
11422;SDS011;5768;51.476;7.210;2023-03-08T07:31:19;3.13;;;2.50;;
11422;SDS011;5768;51.476;7.210;2023-03-08T07:36:21;4.00;;;2.67;;
11422;SDS011;5768;51.476;7.210;2023-03-08T07:41:25;3.93;;;2.43;;
11422;SDS011;5768;51.476;7.210;2023-03-08T07:46:30;2.73;;;2.07;;
11422;SDS011;5768;51.476;7.210;2023-03-08T07:51:32;2.40;;;2.20;;
11422;SDS011;5768;51.476;7.210;2023-03-08T07:56:36;2.17;;;1.97;;
11422;SDS011;5768;51.476;7.210;2023-03-08T08:01:38;2.10;;;1.80;;
11422;SDS011;5768;51.476;7.210;2023-03-08T08:06:40;3.60;;;1.70;;
11422;SDS011;5768;51.476;7.210;2023-03-08T08:11:44;1.53;;;1.40;;
11422;SDS011;5768;51.476;7.210;2023-03-08T08:16:46;3.30;;;1.60;;
11422;SDS011;5768;51.476;7.210;2023-03-08T08:21:48;2.80;;;1.60;;
11422;SDS011;5768;51.476;7.210;2023-03-08T08:26:52;2.27;;;1.40;;
11422;SDS011;5768;51.476;7.210;2023-03-08T08:31:54;4.07;;;2.33;;
11422;SDS011;5768;51.476;7.210;2023-03-08T08:36:56;1.93;;;1.77;;
11422;SDS011;5768;51.476;7.210;2023-03-08T08:42:00;1.60;;;1.50;;
11422;SDS011;5768;51.476;7.210;2023-03-08T08:47:03;1.70;;;1.60;;
11422;SDS011;5768;51.476;7.210;2023-03-08T08:52:05;1.70;;;1.60;;
11422;SDS011;5768;51.476;7.210;2023-03-08T08:57:09;3.17;;;1.70;;
11422;SDS011;5768;51.476;7.210;2023-03-08T09:02:11;1.70;;;1.60;;
11422;SDS011;5768;51.476;7.210;2023-03-08T09:07:13;1.60;;;1.50;;
11422;SDS011;5768;51.476;7.210;2023-03-08T09:12:17;1.80;;;1.70;;
11422;SDS011;5768;51.476;7.210;2023-03-08T09:17:20;3.73;;;2.53;;
11422;SDS011;5768;51.476;7.210;2023-03-08T09:22:22;2.27;;;2.07;;
11422;SDS011;5768;51.476;7.210;2023-03-08T09:27:25;2.13;;;1.80;;
11422;SDS011;5768;51.476;7.210;2023-03-08T09:32:27;1.70;;;1.60;;
11422;SDS011;5768;51.476;7.210;2023-03-08T09:37:29;1.93;;;1.70;;
11422;SDS011;5768;51.476;7.210;2023-03-08T09:42:33;1.80;;;1.70;;
11422;SDS011;5768;51.476;7.210;2023-03-08T09:47:39;2.57;;;1.70;;
11422;SDS011;5768;51.476;7.210;2023-03-08T09:52:48;2.33;;;2.13;;
11422;SDS011;5768;51.476;7.210;2023-03-08T09:58:00;3.67;;;2.23;;
11422;SDS011;5768;51.476;7.210;2023-03-08T10:03:30;2.17;;;1.73;;
11422;SDS011;5768;51.476;7.210;2023-03-08T10:09:14;1.53;;;1.43;;
11422;SDS011;5768;51.476;7.210;2023-03-08T10:14:30;1.50;;;1.40;;
11422;SDS011;5768;51.476;7.210;2023-03-08T10:19:38;2.63;;;1.40;;
11422;SDS011;5768;51.476;7.210;2023-03-08T10:24:49;1.70;;;1.60;;
11422;SDS011;5768;51.476;7.210;2023-03-08T10:29:59;1.90;;;1.57;;
11422;SDS011;5768;51.476;7.210;2023-03-08T10:35:13;2.13;;;1.60;;
11422;SDS011;5768;51.476;7.210;2023-03-08T10:40:18;2.27;;;1.90;;
11422;SDS011;5768;51.476;7.210;2023-03-08T10:45:23;1.57;;;1.47;;
11422;SDS011;5768;51.476;7.210;2023-03-08T10:50:27;1.97;;;1.47;;
11422;SDS011;5768;51.476;7.210;2023-03-08T10:55:41;2.53;;;1.60;;
11422;SDS011;5768;51.476;7.210;2023-03-08T11:00:50;1.93;;;1.70;;
11422;SDS011;5768;51.476;7.210;2023-03-08T11:05:56;2.03;;;1.43;;
11422;SDS011;5768;51.476;7.210;2023-03-08T11:11:03;1.77;;;1.67;;
11422;SDS011;5768;51.476;7.210;2023-03-08T11:22:03;1.60;;;1.50;;
11422;SDS011;5768;51.476;7.210;2023-03-08T11:27:33;1.50;;;1.40;;
11422;SDS011;5768;51.476;7.210;2023-03-08T11:32:56;1.57;;;1.40;;
11422;SDS011;5768;51.476;7.210;2023-03-08T11:38:17;1.60;;;1.50;;
11422;SDS011;5768;51.476;7.210;2023-03-08T11:43:28;1.70;;;1.60;;
11422;SDS011;5768;51.476;7.210;2023-03-08T11:48:58;1.93;;;1.73;;
11422;SDS011;5768;51.476;7.210;2023-03-08T11:54:29;2.10;;;1.90;;
11422;SDS011;5768;51.476;7.210;2023-03-08T11:59:49;1.50;;;1.40;;
11422;SDS011;5768;51.476;7.210;2023-03-08T12:04:59;4.20;;;2.87;;
11422;SDS011;5768;51.476;7.210;2023-03-08T12:10:14;3.03;;;2.30;;
11422;SDS011;5768;51.476;7.210;2023-03-08T12:15:23;2.13;;;1.93;;
11422;SDS011;5768;51.476;7.210;2023-03-08T12:20:35;2.27;;;2.07;;
11422;SDS011;5768;51.476;7.210;2023-03-08T12:25:41;2.40;;;2.20;;
11422;SDS011;5768;51.476;7.210;2023-03-08T12:30:50;2.70;;;2.30;;
11422;SDS011;5768;51.476;7.210;2023-03-08T12:36:09;2.40;;;2.20;;
11422;SDS011;5768;51.476;7.210;2023-03-08T12:41:20;2.40;;;2.20;;
11422;SDS011;5768;51.476;7.210;2023-03-08T12:46:25;2.07;;;1.97;;
11422;SDS011;5768;51.476;7.210;2023-03-08T12:51:31;2.30;;;2.10;;
11422;SDS011;5768;51.476;7.210;2023-03-08T12:56:34;2.10;;;1.90;;
11422;SDS011;5768;51.476;7.210;2023-03-08T13:01:58;2.40;;;2.20;;
11422;SDS011;5768;51.476;7.210;2023-03-08T13:12:39;2.07;;;1.90;;
11422;SDS011;5768;51.476;7.210;2023-03-08T13:18:03;2.10;;;2.00;;
11422;SDS011;5768;51.476;7.210;2023-03-08T13:23:21;36.77;;;4.33;;
11422;SDS011;5768;51.476;7.210;2023-03-08T13:28:32;2.20;;;2.00;;
11422;SDS011;5768;51.476;7.210;2023-03-08T13:33:39;2.80;;;2.60;;
11422;SDS011;5768;51.476;7.210;2023-03-08T13:38:55;3.10;;;2.20;;
11422;SDS011;5768;51.476;7.210;2023-03-08T13:44:00;2.80;;;2.60;;
11422;SDS011;5768;51.476;7.210;2023-03-08T13:49:08;3.10;;;2.50;;
11422;SDS011;5768;51.476;7.210;2023-03-08T13:54:19;2.53;;;2.30;;
11422;SDS011;5768;51.476;7.210;2023-03-08T13:59:28;2.60;;;2.40;;
11422;SDS011;5768;51.476;7.210;2023-03-08T14:04:32;3.00;;;2.70;;
11422;SDS011;5768;51.476;7.210;2023-03-08T14:09:37;3.00;;;2.80;;
11422;SDS011;5768;51.476;7.210;2023-03-08T14:14:39;3.13;;;2.93;;
11422;SDS011;5768;51.476;7.210;2023-03-08T14:19:51;2.83;;;2.50;;
11422;SDS011;5768;51.476;7.210;2023-03-08T14:24:57;2.97;;;2.63;;
11422;SDS011;5768;51.476;7.210;2023-03-08T14:30:03;3.20;;;3.00;;
11422;SDS011;5768;51.476;7.210;2023-03-08T14:35:14;3.10;;;2.90;;
11422;SDS011;5768;51.476;7.210;2023-03-08T14:40:28;3.60;;;3.30;;
11422;SDS011;5768;51.476;7.210;2023-03-08T14:45:35;3.57;;;3.27;;
11422;SDS011;5768;51.476;7.210;2023-03-08T14:50:49;4.13;;;3.63;;
11422;SDS011;5768;51.476;7.210;2023-03-08T14:55:55;3.20;;;3.00;;
11422;SDS011;5768;51.476;7.210;2023-03-08T15:00:59;3.80;;;3.50;;
11422;SDS011;5768;51.476;7.210;2023-03-08T15:06:04;3.90;;;3.60;;
11422;SDS011;5768;51.476;7.210;2023-03-08T15:11:17;4.33;;;3.93;;
11422;SDS011;5768;51.476;7.210;2023-03-08T15:16:19;5.43;;;4.27;;
11422;SDS011;5768;51.476;7.210;2023-03-08T15:21:22;4.10;;;3.80;;
11422;SDS011;5768;51.476;7.210;2023-03-08T15:26:38;4.53;;;4.13;;
11422;SDS011;5768;51.476;7.210;2023-03-08T15:31:39;4.10;;;3.70;;
11422;SDS011;5768;51.476;7.210;2023-03-08T15:36:52;4.13;;;3.83;;
11422;SDS011;5768;51.476;7.210;2023-03-08T15:41:56;4.23;;;3.93;;
11422;SDS011;5768;51.476;7.210;2023-03-08T15:46:58;4.47;;;4.07;;
11422;SDS011;5768;51.476;7.210;2023-03-08T15:52:01;4.90;;;4.37;;
11422;SDS011;5768;51.476;7.210;2023-03-08T15:57:04;6.00;;;4.50;;
11422;SDS011;5768;51.476;7.210;2023-03-08T16:02:10;5.30;;;4.90;;
11422;SDS011;5768;51.476;7.210;2023-03-08T16:07:17;5.30;;;4.60;;
11422;SDS011;5768;51.476;7.210;2023-03-08T16:12:21;5.60;;;5.10;;
11422;SDS011;5768;51.476;7.210;2023-03-08T16:17:23;6.77;;;5.57;;
11422;SDS011;5768;51.476;7.210;2023-03-08T16:22:26;7.67;;;7.03;;
11422;SDS011;5768;51.476;7.210;2023-03-08T16:27:29;7.80;;;7.20;;
11422;SDS011;5768;51.476;7.210;2023-03-08T16:32:33;8.07;;;7.40;;
11422;SDS011;5768;51.476;7.210;2023-03-08T16:37:37;7.87;;;7.17;;
11422;SDS011;5768;51.476;7.210;2023-03-08T16:42:45;7.70;;;7.00;;
11422;SDS011;5768;51.476;7.210;2023-03-08T16:47:53;7.60;;;7.00;;
11422;SDS011;5768;51.476;7.210;2023-03-08T16:52:56;8.03;;;7.33;;
11422;SDS011;5768;51.476;7.210;2023-03-08T16:58:00;7.37;;;6.77;;
11422;SDS011;5768;51.476;7.210;2023-03-08T17:03:02;7.27;;;6.67;;
11422;SDS011;5768;51.476;7.210;2023-03-08T17:08:04;8.10;;;7.40;;
11422;SDS011;5768;51.476;7.210;2023-03-08T17:13:08;8.67;;;7.97;;
11422;SDS011;5768;51.476;7.210;2023-03-08T17:18:10;9.13;;;8.33;;
11422;SDS011;5768;51.476;7.210;2023-03-08T17:23:13;9.00;;;8.20;;
11422;SDS011;5768;51.476;7.210;2023-03-08T17:28:16;8.17;;;7.47;;
11422;SDS011;5768;51.476;7.210;2023-03-08T17:33:19;7.83;;;7.13;;
11422;SDS011;5768;51.476;7.210;2023-03-08T17:38:24;8.90;;;8.10;;
11422;SDS011;5768;51.476;7.210;2023-03-08T17:43:28;9.93;;;9.07;;
11422;SDS011;5768;51.476;7.210;2023-03-08T17:48:30;9.80;;;9.00;;
11422;SDS011;5768;51.476;7.210;2023-03-08T17:53:33;10.10;;;9.23;;
11422;SDS011;5768;51.476;7.210;2023-03-08T17:58:38;10.93;;;10.03;;
11422;SDS011;5768;51.476;7.210;2023-03-08T18:03:40;10.67;;;9.77;;
11422;SDS011;5768;51.476;7.210;2023-03-08T18:08:43;11.30;;;10.30;;
11422;SDS011;5768;51.476;7.210;2023-03-08T18:13:47;11.07;;;9.97;;
11422;SDS011;5768;51.476;7.210;2023-03-08T18:18:50;11.90;;;10.80;;
11422;SDS011;5768;51.476;7.210;2023-03-08T18:23:52;11.57;;;10.47;;
11422;SDS011;5768;51.476;7.210;2023-03-08T18:28:55;11.73;;;10.73;;
11422;SDS011;5768;51.476;7.210;2023-03-08T18:33:57;12.00;;;10.90;;
11422;SDS011;5768;51.476;7.210;2023-03-08T18:39:01;11.60;;;10.60;;
11422;SDS011;5768;51.476;7.210;2023-03-08T18:44:06;12.10;;;11.00;;
11422;SDS011;5768;51.476;7.210;2023-03-08T18:49:09;12.50;;;11.27;;
11422;SDS011;5768;51.476;7.210;2023-03-08T18:54:13;12.63;;;11.43;;
11422;SDS011;5768;51.476;7.210;2023-03-08T18:59:21;12.70;;;11.50;;
11422;SDS011;5768;51.476;7.210;2023-03-08T19:04:23;13.30;;;11.90;;
11422;SDS011;5768;51.476;7.210;2023-03-08T19:09:25;13.47;;;12.07;;
11422;SDS011;5768;51.476;7.210;2023-03-08T19:14:28;12.60;;;11.50;;
11422;SDS011;5768;51.476;7.210;2023-03-08T19:19:30;13.30;;;12.10;;
11422;SDS011;5768;51.476;7.210;2023-03-08T19:24:33;13.53;;;12.30;;
11422;SDS011;5768;51.476;7.210;2023-03-08T19:29:37;13.77;;;12.57;;
11422;SDS011;5768;51.476;7.210;2023-03-08T19:34:39;14.63;;;13.17;;
11422;SDS011;5768;51.476;7.210;2023-03-08T19:39:43;13.40;;;12.20;;
11422;SDS011;5768;51.476;7.210;2023-03-08T19:44:48;12.83;;;11.60;;
11422;SDS011;5768;51.476;7.210;2023-03-08T19:49:51;13.23;;;12.03;;
11422;SDS011;5768;51.476;7.210;2023-03-08T19:54:53;12.47;;;11.37;;
11422;SDS011;5768;51.476;7.210;2023-03-08T20:00:06;13.03;;;11.93;;
11422;SDS011;5768;51.476;7.210;2023-03-08T20:05:09;13.30;;;12.10;;
11422;SDS011;5768;51.476;7.210;2023-03-08T20:10:15;13.37;;;12.07;;
11422;SDS011;5768;51.476;7.210;2023-03-08T20:15:19;13.23;;;12.03;;
11422;SDS011;5768;51.476;7.210;2023-03-08T20:20:21;13.80;;;12.40;;
11422;SDS011;5768;51.476;7.210;2023-03-08T20:25:23;13.90;;;12.67;;
11422;SDS011;5768;51.476;7.210;2023-03-08T20:30:27;13.10;;;11.93;;
11422;SDS011;5768;51.476;7.210;2023-03-08T20:35:29;13.43;;;12.23;;
11422;SDS011;5768;51.476;7.210;2023-03-08T20:40:32;12.83;;;11.73;;
11422;SDS011;5768;51.476;7.210;2023-03-08T20:45:36;13.60;;;12.20;;
11422;SDS011;5768;51.476;7.210;2023-03-08T20:50:39;12.73;;;11.53;;
11422;SDS011;5768;51.476;7.210;2023-03-08T20:55:41;13.37;;;12.17;;
11422;SDS011;5768;51.476;7.210;2023-03-08T21:00:45;12.30;;;11.20;;
11422;SDS011;5768;51.476;7.210;2023-03-08T21:05:47;12.17;;;10.97;;
11422;SDS011;5768;51.476;7.210;2023-03-08T21:10:49;12.13;;;10.93;;
11422;SDS011;5768;51.476;7.210;2023-03-08T21:15:59;11.30;;;10.30;;
11422;SDS011;5768;51.476;7.210;2023-03-08T21:21:02;11.10;;;10.10;;
11422;SDS011;5768;51.476;7.210;2023-03-08T21:26:05;11.47;;;10.47;;
11422;SDS011;5768;51.476;7.210;2023-03-08T21:31:08;11.10;;;10.10;;
11422;SDS011;5768;51.476;7.210;2023-03-08T21:36:11;10.87;;;9.87;;
11422;SDS011;5768;51.476;7.210;2023-03-08T21:41:14;10.97;;;9.97;;
11422;SDS011;5768;51.476;7.210;2023-03-08T21:46:19;10.50;;;9.50;;
11422;SDS011;5768;51.476;7.210;2023-03-08T21:51:22;10.60;;;9.60;;
11422;SDS011;5768;51.476;7.210;2023-03-08T21:56:25;10.40;;;9.50;;
11422;SDS011;5768;51.476;7.210;2023-03-08T22:01:28;10.47;;;9.57;;
11422;SDS011;5768;51.476;7.210;2023-03-08T22:06:31;10.80;;;9.77;;
11422;SDS011;5768;51.476;7.210;2023-03-08T22:11:33;10.57;;;9.57;;
11422;SDS011;5768;51.476;7.210;2023-03-08T22:16:37;10.77;;;9.77;;
11422;SDS011;5768;51.476;7.210;2023-03-08T22:21:39;10.43;;;9.43;;
11422;SDS011;5768;51.476;7.210;2023-03-08T22:26:42;11.30;;;10.13;;
11422;SDS011;5768;51.476;7.210;2023-03-08T22:31:46;11.00;;;10.00;;
11422;SDS011;5768;51.476;7.210;2023-03-08T22:36:48;11.47;;;10.33;;
11422;SDS011;5768;51.476;7.210;2023-03-08T22:41:50;11.57;;;10.43;;
11422;SDS011;5768;51.476;7.210;2023-03-08T22:46:54;11.07;;;10.07;;
11422;SDS011;5768;51.476;7.210;2023-03-08T22:51:56;11.50;;;10.40;;
11422;SDS011;5768;51.476;7.210;2023-03-08T22:56:58;11.50;;;10.40;;
11422;SDS011;5768;51.476;7.210;2023-03-08T23:02:01;10.83;;;9.83;;
11422;SDS011;5768;51.476;7.210;2023-03-08T23:07:03;10.90;;;9.90;;
11422;SDS011;5768;51.476;7.210;2023-03-08T23:12:07;10.60;;;9.63;;
11422;SDS011;5768;51.476;7.210;2023-03-08T23:17:11;10.90;;;9.90;;
11422;SDS011;5768;51.476;7.210;2023-03-08T23:22:14;11.00;;;9.90;;
11422;SDS011;5768;51.476;7.210;2023-03-08T23:27:17;11.77;;;10.67;;
11422;SDS011;5768;51.476;7.210;2023-03-08T23:32:20;11.50;;;10.50;;
11422;SDS011;5768;51.476;7.210;2023-03-08T23:37:23;12.20;;;11.00;;
11422;SDS011;5768;51.476;7.210;2023-03-08T23:42:25;11.53;;;10.37;;
11422;SDS011;5768;51.476;7.210;2023-03-08T23:47:29;11.20;;;10.10;;
11422;SDS011;5768;51.476;7.210;2023-03-08T23:52:31;10.50;;;9.53;;
11422;SDS011;5768;51.476;7.210;2023-03-08T23:57:33;11.77;;;10.63;;
